Time;durP1;ratioP1;P1;durP2;ratioP2;P2;SDS_P1;SDS_P2;PMS_P1;PMS_P2;Temp;Humidity;BMP_temperature;BMP_pressure;BME280_temperature;BME280_humidity;BME280_pressure;Samples;Min_cycle;Max_cycle;Signal;HPM_P1;HPM_P2
2021/08/16 00:00:04;;;;;;;;;;;;;;;15.87;100.00;100080.25;5095079;28;19932;-69
2021/08/16 00:02:31;;;;;;;;;;;;;;;15.82;100.00;100077.19;5095701;28;20376;-64
2021/08/16 00:04:57;;;;;;;;;;;;;;;15.77;100.00;100081.41;5095210;28;20451;-69
2021/08/16 00:07:24;;;;;;;;;;;;;;;15.70;100.00;100079.41;5095705;28;20035;-69
2021/08/16 00:09:50;;;;;;;;;;;;;;;15.64;100.00;100073.78;5095464;28;20451;-69
2021/08/16 00:12:16;;;;;;;;;;;;;;;15.55;100.00;100073.78;5096158;28;20026;-63
2021/08/16 00:14:43;;;;;;;;;;;;;;;15.51;100.00;100060.63;5095384;28;19955;-64
2021/08/16 00:17:11;;;;;;;;;;;;;;;15.51;100.00;100061.50;5095039;28;20020;-65
2021/08/16 00:19:38;;;;;;;;;;;;;;;15.45;100.00;100067.63;5095239;28;19924;-65
2021/08/16 00:22:05;;;;;;;;;;;;;;;15.38;100.00;100064.75;5095160;28;20055;-65
2021/08/16 00:24:31;;;;;;;;;;;;;;;15.35;100.00;100064.22;5095004;28;19930;-64
2021/08/16 00:26:57;;;;;;;;;;;;;;;15.34;100.00;100060.63;5095227;28;19946;-71
2021/08/16 00:29:24;;;;;;;;;;;;;;;15.32;100.00;100059.94;5094950;28;19978;-71
2021/08/16 00:31:50;;;;;;;;;;;;;;;15.23;100.00;100056.38;5095042;28;19924;-71
2021/08/16 00:34:17;;;;;;;;;;;;;;;15.15;100.00;100058.25;5095045;28;20022;-71
2021/08/16 00:36:44;;;;;;;;;;;;;;;15.05;100.00;100055.69;5094937;28;19924;-72
2021/08/16 00:39:10;;;;;;;;;;;;;;;14.97;100.00;100042.88;5094895;28;19924;-71
2021/08/16 00:41:38;;;;;;;;;;;;;;;14.88;100.00;100035.69;5094567;28;20019;-64
2021/08/16 00:44:06;;;;;;;;;;;;;;;14.83;100.00;100044.41;5095294;28;19924;-65
2021/08/16 00:46:33;;;;;;;;;;;;;;;14.77;100.00;100038.75;5094581;28;20470;-65
2021/08/16 00:48:59;;;;;;;;;;;;;;;14.70;100.00;100041.31;5094519;28;20026;-64
2021/08/16 00:51:30;;;;;;;;;;;;;;;14.66;100.00;100048.16;5094585;28;19928;-65
2021/08/16 00:53:56;;;;;;;;;;;;;;;14.62;100.00;100035.78;5094355;28;19928;-71
2021/08/16 00:56:26;;;;;;;;;;;;;;;14.56;100.00;100030.00;5095001;28;20026;-65
2021/08/16 00:58:53;;;;;;;;;;;;;;;14.53;100.00;100026.75;5075508;28;19924;-65
2021/08/16 01:01:19;;;;;;;;;;;;;;;14.59;100.00;100025.19;5094234;28;20015;-72
2021/08/16 01:03:45;;;;;;;;;;;;;;;14.59;100.00;100020.63;5093744;28;19951;-69
2021/08/16 01:06:11;;;;;;;;;;;;;;;14.56;100.00;100021.81;5094257;28;20340;-72
2021/08/16 01:08:39;;;;;;;;;;;;;;;14.56;100.00;100020.94;5094181;28;20015;-65
2021/08/16 01:11:05;;;;;;;;;;;;;;;14.53;100.00;100021.28;5093932;28;20332;-65
2021/08/16 01:13:32;;;;;;;;;;;;;;;14.56;100.00;100027.25;5094345;28;20022;-63
2021/08/16 01:15:59;;;;;;;;;;;;;;;14.59;100.00;100015.16;5093995;28;20023;-64
2021/08/16 01:18:26;;;;;;;;;;;;;;;14.59;100.00;100015.16;5093848;28;19963;-64
2021/08/16 01:20:52;;;;;;;;;;;;;;;14.57;100.00;100018.03;5094195;28;19977;-71
2021/08/16 01:23:19;;;;;;;;;;;;;;;14.53;100.00;100005.72;5093855;28;19924;-70
2021/08/16 01:25:48;;;;;;;;;;;;;;;14.55;100.00;100009.16;5075809;28;20022;-71
2021/08/16 01:28:16;;;;;;;;;;;;;;;14.55;100.00;100009.16;5093660;28;20376;-69
2021/08/16 01:30:42;;;;;;;;;;;;;;;14.50;100.00;100000.63;5093674;28;20026;-69
2021/08/16 01:33:09;;;;;;;;;;;;;;;14.49;100.00;100003.53;5094008;28;20039;-64
2021/08/16 01:35:35;;;;;;;;;;;;;;;14.47;100.00;99991.91;5093436;28;20026;-65
2021/08/16 01:38:01;;;;;;;;;;;;;;;14.45;100.00;99986.59;5093609;28;19928;-73
2021/08/16 01:40:27;;;;;;;;;;;;;;;14.45;100.00;99988.50;5075153;28;20482;-68
2021/08/16 01:42:54;;;;;;;;;;;;;;;14.44;100.00;99979.44;5093568;28;20015;-70
2021/08/16 01:45:22;;;;;;;;;;;;;;;14.40;100.00;99973.47;5093879;28;20364;-71
2021/08/16 01:47:48;;;;;;;;;;;;;;;14.40;100.00;99978.06;5093308;28;20026;-65
2021/08/16 01:50:15;;;;;;;;;;;;;;;14.35;100.00;99974.97;5093574;28;19924;-65
2021/08/16 01:52:41;;;;;;;;;;;;;;;14.32;100.00;99967.13;5093258;28;19925;-65
2021/08/16 01:55:08;;;;;;;;;;;;;;;14.29;100.00;99960.13;5093460;28;19930;-65
2021/08/16 01:57:35;;;;;;;;;;;;;;;14.29;100.00;99959.28;5093185;28;20027;-72
2021/08/16 02:00:01;;;;;;;;;;;;;;;14.25;100.00;99949.72;5092935;28;20491;-66
2021/08/16 02:02:28;;;;;;;;;;;;;;;14.15;100.00;99937.09;5093372;28;20023;-64
2021/08/16 02:04:55;;;;;;;;;;;;;;;14.09;100.00;99937.75;5092862;28;20023;-64
2021/08/16 02:07:21;;;;;;;;;;;;;;;14.02;100.00;99933.97;5093096;28;19993;-70
2021/08/16 02:09:47;;;;;;;;;;;;;;;14.02;100.00;99925.78;5092944;28;20458;-65
2021/08/16 02:12:14;;;;;;;;;;;;;;;14.03;100.00;99920.16;5093126;28;19924;-72
2021/08/16 02:14:40;;;;;;;;;;;;;;;14.01;100.00;99921.34;5093070;28;20023;-71
2021/08/16 02:17:06;;;;;;;;;;;;;;;13.98;100.00;99927.16;5092778;28;20010;-72
2021/08/16 02:19:34;;;;;;;;;;;;;;;13.95;100.00;99922.00;5093055;28;20027;-64
2021/08/16 02:22:00;;;;;;;;;;;;;;;13.92;100.00;99916.91;5074451;28;20023;-64
2021/08/16 02:24:27;;;;;;;;;;;;;;;13.90;100.00;99914.34;5093257;28;20303;-72
2021/08/16 02:26:53;;;;;;;;;;;;;;;13.88;100.00;99908.19;5092698;28;20020;-71
2021/08/16 02:29:19;;;;;;;;;;;;;;;13.86;100.00;99916.53;5092648;28;20026;-64
2021/08/16 02:31:46;;;;;;;;;;;;;;;13.83;100.00;99916.00;5092800;28;19971;-63
2021/08/16 02:34:12;;;;;;;;;;;;;;;13.82;100.00;99919.78;5092554;28;19930;-72
2021/08/16 02:36:39;;;;;;;;;;;;;;;13.84;100.00;99909.53;5092672;28;19963;-70
2021/08/16 02:39:06;;;;;;;;;;;;;;;13.87;100.00;99915.53;5092688;28;20351;-72
2021/08/16 02:41:32;;;;;;;;;;;;;;;13.91;100.00;99916.06;5092501;28;19966;-64
2021/08/16 02:43:58;;;;;;;;;;;;;;;13.88;100.00;99905.44;5092582;28;20027;-66
2021/08/16 02:46:25;;;;;;;;;;;;;;;13.79;100.00;99898.25;5092204;28;19928;-65
2021/08/16 02:48:52;;;;;;;;;;;;;;;13.75;100.00;99905.94;5092392;28;19931;-64
2021/08/16 02:51:18;;;;;;;;;;;;;;;13.74;100.00;99906.97;5092196;28;20387;-70
2021/08/16 02:53:46;;;;;;;;;;;;;;;13.79;100.00;99899.13;5092356;28;20482;-71
2021/08/16 02:56:12;;;;;;;;;;;;;;;13.81;100.00;99890.78;5092481;28;19963;-71
2021/08/16 02:58:38;;;;;;;;;;;;;;;13.80;100.00;99889.06;5091926;28;20125;-71
2021/08/16 03:01:05;;;;;;;;;;;;;;;13.83;100.00;99883.25;5074122;28;20011;-70
2021/08/16 03:03:31;;;;;;;;;;;;;;;13.82;100.00;99885.16;5092320;28;20391;-70
2021/08/16 03:05:57;;;;;;;;;;;;;;;13.83;100.00;99888.72;5091781;28;19975;-72
2021/08/16 03:08:23;;;;;;;;;;;;;;;13.83;100.00;99889.59;5092315;28;20023;-72
2021/08/16 03:10:51;;;;;;;;;;;;;;;13.92;100.00;99882.28;5091794;28;19924;-72
2021/08/16 03:13:17;;;;;;;;;;;;;;;14.04;100.00;99880.97;5092267;28;19954;-70
2021/08/16 03:15:44;;;;;;;;;;;;;;;14.03;100.00;99875.63;5091728;28;20027;-73
2021/08/16 03:18:10;;;;;;;;;;;;;;;14.05;100.00;99871.72;5092005;28;19924;-70
2021/08/16 03:20:36;;;;;;;;;;;;;;;14.10;100.00;99873.97;5073918;28;20280;-66
2021/08/16 03:23:03;;;;;;;;;;;;;;;14.15;100.00;99870.72;5091715;28;20015;-70
2021/08/16 03:25:29;;;;;;;;;;;;;;;14.12;100.00;99868.34;5091529;28;20022;-70
2021/08/16 03:27:56;;;;;;;;;;;;;;;14.08;100.00;99876.00;5091528;28;19970;-71
2021/08/16 03:30:23;;;;;;;;;;;;;;;13.98;100.00;99876.16;5092020;28;19930;-70
2021/08/16 03:32:50;;;;;;;;;;;;;;;13.89;100.00;99877.16;5091929;28;19932;-71
2021/08/16 03:35:16;;;;;;;;;;;;;;;13.82;100.00;99866.06;5091807;28;19928;-72
2021/08/16 03:37:45;;;;;;;;;;;;;;;13.75;100.00;99862.31;5091957;28;20023;-64
2021/08/16 03:40:12;;;;;;;;;;;;;;;13.69;100.00;99854.78;5091595;28;20334;-65
2021/08/16 03:42:39;;;;;;;;;;;;;;;13.66;100.00;99844.22;5092058;28;20026;-70
2021/08/16 03:45:08;;;;;;;;;;;;;;;13.63;100.00;99842.66;5091869;28;20241;-71
2021/08/16 03:47:34;;;;;;;;;;;;;;;13.62;100.00;99845.56;5092115;28;19964;-71
2021/08/16 03:50:01;;;;;;;;;;;;;;;13.62;100.00;99845.56;5091740;28;20315;-65
2021/08/16 03:52:27;;;;;;;;;;;;;;;13.69;100.00;99841.97;5091942;28;19924;-66
2021/08/16 03:54:53;;;;;;;;;;;;;;;13.78;100.00;99831.13;5091724;28;20295;-66
2021/08/16 03:57:20;;;;;;;;;;;;;;;13.85;100.00;99835.72;5083787;28;20015;-66
2021/08/16 03:59:46;;;;;;;;;;;;;;;13.89;100.00;99834.34;5085961;28;20338;-66
2021/08/16 04:02:13;;;;;;;;;;;;;;;13.99;100.00;99836.06;5090008;28;19924;-66
2021/08/16 04:04:40;;;;;;;;;;;;;;;14.11;100.00;99829.28;5071083;28;19925;-65
2021/08/16 04:07:06;;;;;;;;;;;;;;;14.19;100.00;99828.41;5075325;28;20027;-66
2021/08/16 04:09:32;;;;;;;;;;;;;;;14.32;100.00;99823.28;5072785;28;19959;-65
2021/08/16 04:11:58;;;;;;;;;;;;;;;14.46;100.00;99883.72;5090598;28;20409;-64
2021/08/16 04:14:25;;;;;;;;;;;;;;;14.80;100.00;99877.22;5086180;28;20027;-64
2021/08/16 04:16:51;;;;;;;;;;;;;;;15.15;100.00;99834.97;5070523;28;20018;-67
2021/08/16 04:19:19;;;;;;;;;;;;;;;15.66;100.00;99828.22;5074326;28;20027;-67
2021/08/16 04:21:45;;;;;;;;;;;;;;;15.92;100.00;99824.34;5091011;28;20010;-70
2021/08/16 04:24:11;;;;;;;;;;;;;;;16.22;100.00;99848.09;5088661;28;19928;-65
2021/08/16 04:26:38;;;;;;;;;;;;;;;16.51;100.00;99862.91;5070469;28;20015;-66
2021/08/16 04:29:04;;;;;;;;;;;;;;;16.65;100.00;99871.34;5083530;28;20478;-72
2021/08/16 04:31:31;;;;;;;;;;;;;;;16.76;100.00;99853.63;5091269;28;20371;-72
2021/08/16 04:33:57;;;;;;;;;;;;;;;16.89;100.00;99834.66;5078395;28;20020;-72
2021/08/16 04:36:24;;;;;;;;;;;;;;;17.02;100.00;99823.03;5070952;28;19970;-65
2021/08/16 04:38:51;;;;;;;;;;;;;;;17.07;100.00;99828.81;5067445;28;20395;-72
2021/08/16 04:41:17;;;;;;;;;;;;;;;17.05;100.00;99825.44;5095222;28;19924;-72
2021/08/16 04:43:44;;;;;;;;;;;;;;;17.00;100.00;99833.34;5084332;28;20430;-72
2021/08/16 04:46:10;;;;;;;;;;;;;;;16.85;100.00;99836.91;5056699;28;20020;-65
2021/08/16 04:48:37;;;;;;;;;;;;;;;16.75;100.00;99855.50;5082073;28;19967;-66
2021/08/16 04:51:03;;;;;;;;;;;;;;;16.68;100.00;99877.31;5093627;28;20026;-71
2021/08/16 04:53:31;;;;;;;;;;;;;;;16.66;100.00;99871.19;5087090;28;20060;-69
2021/08/16 04:55:57;;;;;;;;;;;;;;;16.61;100.00;99870.00;5079545;28;20027;-66
2021/08/16 04:58:23;;;;;;;;;;;;;;;16.60;100.00;99862.84;5090056;28;19924;-65
2021/08/16 05:00:50;;;;;;;;;;;;;;;16.54;100.00;99864.41;5090768;28;19972;-71
2021/08/16 05:03:16;;;;;;;;;;;;;;;16.53;100.00;99866.31;5075454;28;19931;-68
2021/08/16 05:05:47;;;;;;;;;;;;;;;16.53;100.00;99877.28;5057498;28;19975;-68
2021/08/16 05:08:14;;;;;;;;;;;;;;;16.55;100.00;99882.56;5094138;28;20026;-68
2021/08/16 05:10:42;;;;;;;;;;;;;;;16.64;100.00;99873.22;5086010;28;19967;-66
2021/08/16 05:13:11;;;;;;;;;;;;;;;16.75;100.00;99863.72;5077176;28;20384;-66
2021/08/16 05:15:37;;;;;;;;;;;;;;;16.85;100.00;99866.19;5085341;28;20023;-71
2021/08/16 05:18:04;;;;;;;;;;;;;;;17.00;100.00;99866.25;5085522;28;20007;-71
2021/08/16 05:20:31;;;;;;;;;;;;;;;17.20;100.00;99861.06;5089787;28;20023;-71
2021/08/16 05:22:58;;;;;;;;;;;;;;;17.38;100.00;99863.41;5093715;28;19969;-69
2021/08/16 05:25:24;;;;;;;;;;;;;;;17.59;100.00;99867.28;5078755;28;19967;-69
2021/08/16 05:27:51;;;;;;;;;;;;;;;17.79;100.00;99853.81;5078949;28;19930;-70
2021/08/16 05:30:18;;;;;;;;;;;;;;;17.93;100.00;99865.81;5078914;28;20242;-69
2021/08/16 05:32:44;;;;;;;;;;;;;;;18.12;100.00;99856.94;5092769;28;19969;-69
2021/08/16 05:35:11;;;;;;;;;;;;;;;18.34;100.00;99856.94;5091245;28;19976;-68
2021/08/16 05:37:37;;;;;;;;;;;;;;;18.68;100.00;99858.06;5076077;28;19924;-69
2021/08/16 05:40:04;;;;;;;;;;;;;;;18.98;100.00;99849.69;5073782;28;20398;-67
2021/08/16 05:42:30;;;;;;;;;;;;;;;19.28;100.00;99847.53;5055491;28;19999;-68
2021/08/16 05:44:58;;;;;;;;;;;;;;;19.58;100.00;99847.25;5074629;28;19924;-69
2021/08/16 05:47:25;;;;;;;;;;;;;;;19.94;100.00;99845.31;5093244;28;19960;-71
2021/08/16 05:49:51;;;;;;;;;;;;;;;20.47;100.00;99850.91;5088212;28;19924;-69
2021/08/16 05:52:18;;;;;;;;;;;;;;;21.02;100.00;99850.69;5073255;28;19960;-70
2021/08/16 05:54:44;;;;;;;;;;;;;;;21.59;100.00;99844.59;5076838;28;19924;-69
2021/08/16 05:57:10;;;;;;;;;;;;;;;21.88;100.00;99845.13;5060164;28;19987;-69
2021/08/16 05:59:36;;;;;;;;;;;;;;;22.12;100.00;99840.72;5091683;28;20383;-69
2021/08/16 06:02:04;;;;;;;;;;;;;;;22.48;100.00;99844.75;5090127;28;19964;-70
2021/08/16 06:04:31;;;;;;;;;;;;;;;22.57;100.00;99850.88;5093299;28;20377;-67
2021/08/16 06:06:57;;;;;;;;;;;;;;;22.59;100.00;99847.88;5081506;28;20023;-67
2021/08/16 06:09:23;;;;;;;;;;;;;;;22.62;100.00;99845.53;5054835;28;20022;-72
2021/08/16 06:11:49;;;;;;;;;;;;;;;22.32;100.00;99853.56;5059493;28;20019;-67
2021/08/16 06:14:16;;;;;;;;;;;;;;;21.91;100.00;99855.72;5084940;28;19959;-70
2021/08/16 06:16:42;;;;;;;;;;;;;;;21.46;100.00;99842.72;5066554;28;19924;-70
2021/08/16 06:19:10;;;;;;;;;;;;;;;21.22;100.00;99847.06;5072598;28;19978;-70
2021/08/16 06:21:41;;;;;;;;;;;;;;;21.44;100.00;99842.09;5078291;28;19978;-70
2021/08/16 06:24:07;;;;;;;;;;;;;;;21.98;100.00;99834.44;5092829;28;20417;-70
2021/08/16 06:26:33;;;;;;;;;;;;;;;22.11;100.00;99839.03;5075223;28;20015;-70
2021/08/16 06:28:59;;;;;;;;;;;;;;;21.92;100.00;99849.13;5073150;28;20015;-69
2021/08/16 06:31:26;;;;;;;;;;;;;;;21.45;100.00;99840.19;5072652;28;20031;-69
2021/08/16 06:33:52;;;;;;;;;;;;;;;20.79;100.00;99859.41;5079068;28;20028;-70
2021/08/16 06:36:20;;;;;;;;;;;;;;;20.38;100.00;99857.69;5073438;28;20011;-69
2021/08/16 06:38:48;;;;;;;;;;;;;;;20.59;100.00;99864.91;5088306;28;19924;-68
2021/08/16 06:41:14;;;;;;;;;;;;;;;20.57;100.00;99870.59;5091825;28;19924;-68
2021/08/16 06:43:41;;;;;;;;;;;;;;;20.91;100.00;99867.88;5088981;28;19925;-68
2021/08/16 06:46:07;;;;;;;;;;;;;;;20.76;100.00;99870.03;5071749;28;20015;-72
2021/08/16 06:48:34;;;;;;;;;;;;;;;20.81;100.00;99865.56;5072504;28;20023;-66
2021/08/16 06:51:00;;;;;;;;;;;;;;;21.30;100.00;99857.84;5073128;28;19975;-69
2021/08/16 06:53:28;;;;;;;;;;;;;;;21.70;100.00;99854.13;5071854;28;19924;-68
2021/08/16 06:55:54;;;;;;;;;;;;;;;21.88;100.00;99857.00;5085217;28;19928;-66
2021/08/16 06:58:20;;;;;;;;;;;;;;;21.73;100.00;99857.28;5072654;28;20486;-68
2021/08/16 07:00:47;;;;;;;;;;;;;;;22.25;100.00;99856.38;5086078;28;19969;-72
2021/08/16 07:03:13;;;;;;;;;;;;;;;22.32;100.00;99856.34;5089355;28;19932;-72
2021/08/16 07:05:41;;;;;;;;;;;;;;;22.13;100.00;99860.91;5071522;28;20023;-66
2021/08/16 07:08:07;;;;;;;;;;;;;;;21.77;100.00;99860.47;5076540;28;19964;-66
2021/08/16 07:10:35;;;;;;;;;;;;;;;21.43;100.00;99848.66;5071918;28;20022;-73
2021/08/16 07:13:01;;;;;;;;;;;;;;;21.27;100.00;99855.50;5071367;28;19971;-66
2021/08/16 07:15:29;;;;;;;;;;;;;;;21.34;100.00;99863.75;5071804;28;19963;-73
2021/08/16 07:17:55;;;;;;;;;;;;;;;21.94;100.00;99854.44;5070885;28;20014;-69
2021/08/16 07:20:22;;;;;;;;;;;;;;;22.79;100.00;99850.47;5071069;28;19967;-70
2021/08/16 07:22:48;;;;;;;;;;;;;;;22.57;100.00;99859.16;5071623;28;19925;-70
2021/08/16 07:25:15;;;;;;;;;;;;;;;22.52;100.00;99848.78;5071534;28;20027;-70
2021/08/16 07:27:42;;;;;;;;;;;;;;;22.60;100.00;99849.59;5071476;28;20341;-70
2021/08/16 07:30:09;;;;;;;;;;;;;;;23.13;100.00;99843.59;5071293;28;19956;-69
2021/08/16 07:32:35;;;;;;;;;;;;;;;23.23;100.00;99837.50;5071368;28;20007;-69
2021/08/16 07:35:02;;;;;;;;;;;;;;;22.88;100.00;99843.59;5071399;28;20019;-68
2021/08/16 07:37:28;;;;;;;;;;;;;;;23.04;100.00;99843.00;5071078;28;19956;-68
2021/08/16 07:39:54;;;;;;;;;;;;;;;23.30;100.00;99837.44;5071475;28;20023;-67
2021/08/16 07:42:23;;;;;;;;;;;;;;;23.82;100.00;99837.84;5071494;28;19928;-67
2021/08/16 07:44:51;;;;;;;;;;;;;;;24.45;100.00;99841.22;5071064;28;19963;-67
2021/08/16 07:47:17;;;;;;;;;;;;;;;23.98;100.00;99836.38;5071328;28;20479;-69
2021/08/16 07:49:44;;;;;;;;;;;;;;;24.04;100.00;99846.53;5071096;28;19956;-67
2021/08/16 07:52:10;;;;;;;;;;;;;;;23.44;100.00;99855.59;5071465;28;19928;-67
2021/08/16 07:54:37;;;;;;;;;;;;;;;23.02;100.00;99858.13;5071566;28;19931;-71
2021/08/16 07:57:03;;;;;;;;;;;;;;;23.21;100.00;99859.88;5070697;28;19932;-66
2021/08/16 07:59:29;;;;;;;;;;;;;;;23.59;100.00;99865.44;5071233;28;19976;-68
2021/08/16 08:01:57;;;;;;;;;;;;;;;23.97;100.00;99861.56;5070751;28;20026;-67
2021/08/16 08:04:23;;;;;;;;;;;;;;;24.22;100.00;99858.66;5071410;28;20023;-69
2021/08/16 08:06:49;;;;;;;;;;;;;;;24.90;100.00;99873.16;5075584;28;19924;-69
2021/08/16 08:09:16;;;;;;;;;;;;;;;24.31;100.00;99856.41;5091026;28;19924;-73
2021/08/16 08:11:42;;;;;;;;;;;;;;;24.66;100.00;99870.34;5092224;28;20023;-72
2021/08/16 08:14:08;;;;;;;;;;;;;;;25.28;100.00;99873.78;5095097;28;19982;-66
2021/08/16 08:16:35;;;;;;;;;;;;;;;24.83;100.00;99884.38;5095037;28;20007;-66
2021/08/16 08:19:02;;;;;;;;;;;;;;;24.24;100.00;99881.44;5067078;28;19929;-68
2021/08/16 08:21:28;;;;;;;;;;;;;;;23.64;100.00;99882.22;5075577;28;19925;-67
2021/08/16 08:23:55;;;;;;;;;;;;;;;24.26;100.00;99875.66;5074674;28;19952;-67
2021/08/16 08:26:21;;;;;;;;;;;;;;;24.11;100.00;99876.94;5074886;28;20030;-72
2021/08/16 08:28:47;;;;;;;;;;;;;;;24.54;100.00;99880.56;5075185;28;20028;-72
2021/08/16 08:31:14;;;;;;;;;;;;;;;24.46;100.00;99881.75;5074736;28;19930;-69
2021/08/16 08:33:40;;;;;;;;;;;;;;;24.29;100.00;99880.72;5078007;28;20375;-69
2021/08/16 08:36:08;;;;;;;;;;;;;;;24.78;100.00;99875.94;5093164;28;20043;-69
2021/08/16 08:38:34;;;;;;;;;;;;;;;25.27;100.00;99888.75;5094091;28;19967;-70
2021/08/16 08:41:00;;;;;;;;;;;;;;;24.82;100.00;99879.09;5075455;28;20023;-67
2021/08/16 08:43:27;;;;;;;;;;;;;;;24.90;100.00;99879.56;5077340;28;19936;-67
2021/08/16 08:45:54;;;;;;;;;;;;;;;24.53;100.00;99885.28;5076230;28;19931;-67
2021/08/16 08:48:21;;;;;;;;;;;;;;;24.07;100.00;99875.72;5076270;28;20034;-66
2021/08/16 08:50:48;;;;;;;;;;;;;;;24.26;100.00;99879.28;5080397;28;19970;-67
2021/08/16 08:53:16;;;;;;;;;;;;;;;24.50;100.00;99880.19;5076193;28;20015;-72
2021/08/16 08:55:44;;;;;;;;;;;;;;;25.24;100.00;99871.50;5093628;28;20019;-67
2021/08/16 08:58:12;;;;;;;;;;;;;;;25.25;100.00;99875.09;5081034;28;19932;-74
2021/08/16 09:00:39;;;;;;;;;;;;;;;24.82;100.00;99879.91;5083730;28;20281;-70
2021/08/16 09:03:05;;;;;;;;;;;;;;;25.13;100.00;99879.81;5076612;28;19935;-67
2021/08/16 09:05:32;;;;;;;;;;;;;;;24.79;100.00;99879.56;5073603;28;20023;-67
2021/08/16 09:07:59;;;;;;;;;;;;;;;24.27;100.00;99871.81;5075244;28;20299;-66
2021/08/16 09:10:28;;;;;;;;;;;;;;;23.58;100.00;99886.72;5073946;28;19928;-66
2021/08/16 09:12:56;;;;;;;;;;;;;;;23.02;100.00;99888.56;5091810;28;19924;-66
2021/08/16 09:15:23;;;;;;;;;;;;;;;24.01;100.00;99884.94;5093146;28;20031;-67
2021/08/16 09:17:50;;;;;;;;;;;;;;;23.72;100.00;99879.13;5093388;28;19967;-67
2021/08/16 09:20:18;;;;;;;;;;;;;;;23.68;100.00;99892.59;5080759;28;20014;-69
2021/08/16 09:22:48;;;;;;;;;;;;;;;23.72;100.00;99893.81;5072793;28;20406;-69
2021/08/16 09:25:16;;;;;;;;;;;;;;;23.47;100.00;99906.91;5085055;28;19967;-72
2021/08/16 09:27:45;;;;;;;;;;;;;;;23.66;100.00;99899.44;5074083;28;19935;-66
2021/08/16 09:30:12;;;;;;;;;;;;;;;24.23;98.17;99900.00;5088494;28;20239;-66
2021/08/16 09:32:40;;;;;;;;;;;;;;;24.88;94.50;99901.16;5093539;28;19928;-67
2021/08/16 09:35:07;;;;;;;;;;;;;;;24.43;97.23;99901.63;5089532;28;19928;-73
2021/08/16 09:37:34;;;;;;;;;;;;;;;24.82;97.69;99907.66;5072966;28;20396;-73
2021/08/16 09:40:04;;;;;;;;;;;;;;;25.07;95.36;99909.41;5080091;28;20344;-73
2021/08/16 09:42:40;;;;;;;;;;;;;;;25.86;90.91;99906.19;5078187;28;20018;-65
2021/08/16 09:45:10;;;;;;;;;;;;;;;25.54;90.63;99923.28;5058044;28;19924;-65
2021/08/16 09:47:39;;;;;;;;;;;;;;;25.33;87.38;99919.16;5086645;28;19924;-73
2021/08/16 09:50:05;;;;;;;;;;;;;;;25.92;81.96;99906.31;5072589;28;19975;-72
2021/08/16 09:52:33;;;;;;;;;;;;;;;26.40;78.41;99900.34;5078978;28;20045;-72
2021/08/16 09:55:00;;;;;;;;;;;;;;;25.73;80.31;99912.03;5091256;28;20303;-72
2021/08/16 09:57:27;;;;;;;;;;;;;;;25.71;79.60;99922.56;5091148;28;20414;-68
2021/08/16 09:59:55;;;;;;;;;;;;;;;25.30;75.27;99904.94;5078835;28;20419;-67
2021/08/16 10:02:23;;;;;;;;;;;;;;;25.64;76.85;99913.50;5077189;28;20028;-68
2021/08/16 10:04:49;;;;;;;;;;;;;;;25.58;79.43;99909.75;5082013;28;19971;-64
2021/08/16 10:07:18;;;;;;;;;;;;;;;25.81;76.18;99931.09;5092179;28;19931;-74
2021/08/16 10:09:44;;;;;;;;;;;;;;;25.85;72.82;99910.06;5083766;28;19970;-73
2021/08/16 10:12:12;;;;;;;;;;;;;;;26.23;68.49;99908.66;5072505;28;19928;-63
2021/08/16 10:14:39;;;;;;;;;;;;;;;26.02;65.56;99920.44;5072428;28;19974;-63
2021/08/16 10:17:06;;;;;;;;;;;;;;;25.85;66.88;99910.06;5085512;28;19927;-63
2021/08/16 10:19:38;;;;;;;;;;;;;;;25.57;69.74;99896.94;5079343;28;20030;-63
2021/08/16 10:22:06;;;;;;;;;;;;;;;26.08;66.44;99902.75;5088563;28;19989;-72
2021/08/16 10:24:32;;;;;;;;;;;;;;;25.94;68.43;99904.97;5081693;28;19928;-67
2021/08/16 10:27:00;;;;;;;;;;;;;;;26.18;67.45;99900.19;5071741;28;20038;-64
2021/08/16 10:29:28;;;;;;;;;;;;;;;26.45;64.56;99901.53;5055157;28;20344;-71
2021/08/16 10:31:54;;;;;;;;;;;;;;;25.83;65.08;99917.81;5074543;28;19925;-71
2021/08/16 10:34:32;;;;;;;;;;;;;;;25.48;69.90;99899.28;5091434;28;19928;-66
2021/08/16 10:37:01;;;;;;;;;;;;;;;25.38;67.32;99905.44;5090680;28;19974;-70
2021/08/16 10:39:37;;;;;;;;;;;;;;;25.00;76.18;99912.28;5088801;28;19969;-71
2021/08/16 10:42:04;;;;;;;;;;;;;;;25.07;74.19;99904.69;5090141;28;20039;-64
2021/08/16 10:44:37;;;;;;;;;;;;;;;25.31;70.16;99907.47;5091379;28;19924;-66
2021/08/16 10:47:03;;;;;;;;;;;;;;;25.64;71.53;99905.16;5082219;28;19968;-71
2021/08/16 10:49:31;;;;;;;;;;;;;;;25.05;69.71;99911.56;5090437;28;19930;-64
2021/08/16 10:51:59;;;;;;;;;;;;;;;24.24;77.07;99890.59;5089862;28;19979;-70
2021/08/16 10:54:26;;;;;;;;;;;;;;;23.72;83.44;99899.34;5091766;28;19931;-70
2021/08/16 10:56:53;;;;;;;;;;;;;;;24.42;79.12;99902.72;5088846;28;20039;-71
2021/08/16 10:59:20;;;;;;;;;;;;;;;25.31;73.83;99889.94;5071971;28;20327;-71
2021/08/16 11:01:47;;;;;;;;;;;;;;;25.44;70.97;99892.53;5072922;28;20018;-71
2021/08/16 11:04:16;;;;;;;;;;;;;;;25.76;68.54;99889.28;5089613;28;22558;-72
2021/08/16 11:06:52;;;;;;;;;;;;;;;26.14;65.21;99887.88;5072604;28;19932;-64
2021/08/16 11:09:23;;;;;;;;;;;;;;;26.04;59.98;99879.34;5085041;28;19985;-71
2021/08/16 11:11:52;;;;;;;;;;;;;;;26.63;60.37;99878.19;5071709;28;20175;-71
2021/08/16 11:14:23;;;;;;;;;;;;;;;27.10;58.18;99868.69;5071390;28;19946;-62
2021/08/16 11:16:50;;;;;;;;;;;;;;;26.23;57.02;99872.50;5071504;28;19975;-62
2021/08/16 11:19:16;;;;;;;;;;;;;;;25.86;62.62;99866.44;5071483;28;20023;-62
2021/08/16 11:21:52;;;;;;;;;;;;;;;25.22;67.75;99858.94;5090075;28;20011;-71
2021/08/16 11:24:25;;;;;;;;;;;;;;;25.76;70.78;99872.63;5091831;28;20019;-71
2021/08/16 11:26:51;;;;;;;;;;;;;;;26.25;64.13;99865.84;5087141;28;19956;-71
2021/08/16 11:29:22;;;;;;;;;;;;;;;26.45;62.95;99866.19;5091412;28;20014;-63
2021/08/16 11:31:50;;;;;;;;;;;;;;;26.11;62.57;99866.16;5089900;28;20040;-66
2021/08/16 11:34:16;;;;;;;;;;;;;;;26.00;63.74;99855.88;5088505;28;19994;-67
2021/08/16 11:36:43;;;;;;;;;;;;;;;26.35;62.71;99861.31;5082572;28;20007;-73
2021/08/16 11:39:09;;;;;;;;;;;;;;;26.71;60.97;99847.19;5070762;28;20031;-72
2021/08/16 11:41:36;;;;;;;;;;;;;;;26.76;61.63;99847.28;5072138;28;20375;-63
2021/08/16 11:44:13;;;;;;;;;;;;;;;26.79;63.21;99866.28;5053329;28;19924;-68
2021/08/16 11:46:39;;;;;;;;;;;;;;;26.23;65.89;99855.81;5073436;28;19979;-68
2021/08/16 11:49:10;;;;;;;;;;;;;;;25.41;67.53;99854.09;5075366;28;20027;-68
2021/08/16 11:51:36;;;;;;;;;;;;;;;24.54;74.69;99861.16;5079654;28;20474;-67
2021/08/16 11:54:03;;;;;;;;;;;;;;;24.23;80.36;99855.63;5093312;28;19950;-63
2021/08/16 11:56:29;;;;;;;;;;;;;;;24.04;84.74;99863.16;5093858;28;19930;-63
2021/08/16 11:58:57;;;;;;;;;;;;;;;23.90;86.20;99859.75;5083100;28;20292;-65
2021/08/16 12:01:23;;;;;;;;;;;;;;;24.28;84.60;99854.94;5090746;28;20027;-64
2021/08/16 12:03:49;;;;;;;;;;;;;;;24.56;86.99;99854.28;5084497;28;20310;-65
2021/08/16 12:06:16;;;;;;;;;;;;;;;24.52;82.03;99853.06;5093693;28;20379;-63
2021/08/16 12:08:43;;;;;;;;;;;;;;;24.78;84.67;99866.78;5095200;28;20403;-64
2021/08/16 12:11:10;;;;;;;;;;;;;;;24.39;83.73;99858.81;5078312;28;19950;-70
2021/08/16 12:13:36;;;;;;;;;;;;;;;24.52;89.46;99854.97;5074990;28;19990;-68
2021/08/16 12:16:04;;;;;;;;;;;;;;;24.30;86.88;99850.00;5083035;28;20024;-67
2021/08/16 12:18:32;;;;;;;;;;;;;;;25.03;84.22;99852.69;5074489;28;20014;-68
2021/08/16 12:20:59;;;;;;;;;;;;;;;25.87;76.26;99845.91;5057575;28;20316;-64
2021/08/16 12:23:26;;;;;;;;;;;;;;;27.08;71.04;99841.09;5074253;28;19924;-62
2021/08/16 12:25:53;;;;;;;;;;;;;;;27.14;62.41;99842.88;5086605;28;20038;-66
2021/08/16 12:28:19;;;;;;;;;;;;;;;27.68;61.91;99838.59;5094151;28;19924;-66
2021/08/16 12:30:46;;;;;;;;;;;;;;;27.61;59.01;99840.75;5088592;28;19931;-67
2021/08/16 12:33:15;;;;;;;;;;;;;;;26.93;57.46;99843.66;5092850;28;19928;-68
2021/08/16 12:35:42;;;;;;;;;;;;;;;26.38;60.70;99840.50;5074383;28;19929;-71